Time;durP1;ratioP1;P1;durP2;ratioP2;P2;SDS_P1;SDS_P2;PMS_P1;PMS_P2;Temp;Humidity;BMP_temperature;BMP_pressure;BME280_temperature;BME280_humidity;BME280_pressure;Samples;Min_cycle;Max_cycle;Signal;HPM_P1;HPM_P2
2021/07/03 00:00:53;;;;;;;9.53;5.37;;;13.90;99.90;;;;;;1928837;74;21055;-74
2021/07/03 00:03:19;;;;;;;6.92;5.20;;;13.80;99.90;;;;;;1931260;74;21079;-74
2021/07/03 00:05:45;;;;;;;11.63;5.35;;;13.80;99.90;;;;;;1929258;73;21163;-74
2021/07/03 00:08:11;;;;;;;10.72;6.03;;;13.80;99.90;;;;;;1932872;73;21073;-74
2021/07/03 00:10:37;;;;;;;9.58;6.42;;;13.80;99.90;;;;;;1944920;73;21071;-74
2021/07/03 00:13:03;;;;;;;12.53;5.92;;;13.70;99.90;;;;;;1931029;74;21150;-74
2021/07/03 00:15:30;;;;;;;6.65;5.37;;;13.70;99.90;;;;;;1930326;73;21038;-74
2021/07/03 00:17:57;;;;;;;7.70;5.67;;;13.70;99.90;;;;;;1932997;73;21071;-74
2021/07/03 00:20:23;;;;;;;10.45;6.30;;;13.60;99.90;;;;;;1929042;74;21067;-73
2021/07/03 00:22:50;;;;;;;8.18;6.30;;;13.60;99.90;;;;;;1928737;74;21091;-75
2021/07/03 00:25:16;;;;;;;8.28;6.00;;;13.60;99.90;;;;;;1931222;74;21045;-74
2021/07/03 00:27:42;;;;;;;7.97;5.67;;;13.60;99.90;;;;;;1928749;74;21145;-73
2021/07/03 00:30:08;;;;;;;8.08;5.15;;;13.60;99.90;;;;;;1937892;73;21196;-75
2021/07/03 00:32:34;;;;;;;8.78;5.95;;;13.60;99.90;;;;;;1929640;74;21075;-74
2021/07/03 00:35:00;;;;;;;7.30;5.45;;;13.50;99.90;;;;;;1929032;74;21072;-74
2021/07/03 00:37:27;;;;;;;8.70;6.00;;;13.50;99.90;;;;;;1929278;74;21572;-74
2021/07/03 00:39:53;;;;;;;6.65;5.33;;;13.50;99.90;;;;;;1935663;73;21501;-74
2021/07/03 00:42:19;;;;;;;9.03;5.22;;;13.50;99.90;;;;;;1931714;72;21139;-74
2021/07/03 00:44:45;;;;;;;8.15;6.28;;;13.50;99.90;;;;;;1935410;73;21156;-74
2021/07/03 00:47:11;;;;;;;8.03;5.28;;;13.50;99.90;;;;;;1933127;73;21070;-74
2021/07/03 00:49:37;;;;;;;14.95;5.25;;;13.50;99.90;;;;;;1937164;74;21073;-74
2021/07/03 00:52:04;;;;;;;7.60;5.10;;;13.40;99.90;;;;;;1939288;73;21164;-74
2021/07/03 00:54:30;;;;;;;8.15;5.72;;;13.40;99.90;;;;;;1941653;73;21149;-74
2021/07/03 00:57:02;;;;;;;8.30;5.25;;;13.50;99.90;;;;;;1939738;73;21065;-73
2021/07/03 00:59:28;;;;;;;7.75;5.53;;;13.50;99.90;;;;;;1929060;74;21125;-73
2021/07/03 01:01:54;;;;;;;15.35;5.80;;;13.50;99.90;;;;;;1929204;74;21145;-73
2021/07/03 01:04:20;;;;;;;10.55;5.50;;;13.50;99.90;;;;;;1906295;73;21149;-74
2021/07/03 01:06:46;;;;;;;7.37;5.85;;;13.40;99.90;;;;;;1929030;74;21031;-75
2021/07/03 01:09:12;;;;;;;10.32;5.58;;;13.40;99.90;;;;;;1929127;74;21075;-74
2021/07/03 01:11:38;;;;;;;7.15;5.60;;;13.40;99.90;;;;;;1929029;74;21145;-74
2021/07/03 01:14:04;;;;;;;16.40;5.80;;;13.40;99.90;;;;;;1929104;74;21050;-74
2021/07/03 01:16:31;;;;;;;8.93;6.20;;;13.40;99.90;;;;;;1934986;73;21144;-73
2021/07/03 01:18:57;;;;;;;8.53;5.45;;;13.40;99.90;;;;;;1945201;73;21072;-74
2021/07/03 01:21:23;;;;;;;8.73;5.58;;;13.40;99.90;;;;;;1930302;74;21572;-74
2021/07/03 01:23:49;;;;;;;7.33;5.78;;;13.30;99.90;;;;;;1928917;74;21558;-73
2021/07/03 01:26:15;;;;;;;11.83;5.90;;;13.30;99.90;;;;;;1928926;74;21494;-74
2021/07/03 01:28:41;;;;;;;8.48;5.83;;;13.30;99.90;;;;;;1928994;74;21084;-73
2021/07/03 01:31:08;;;;;;;7.37;5.92;;;13.20;99.90;;;;;;1929192;74;21079;-74
2021/07/03 01:33:34;;;;;;;7.55;6.05;;;13.20;99.90;;;;;;1933517;73;21153;-75
2021/07/03 01:36:00;;;;;;;6.97;5.30;;;13.20;99.90;;;;;;1929271;74;21041;-74
2021/07/03 01:38:26;;;;;;;9.70;5.75;;;13.20;99.90;;;;;;1929188;74;21059;-74
2021/07/03 01:40:52;;;;;;;16.85;6.00;;;13.10;99.90;;;;;;1938936;73;21526;-75
2021/07/03 01:43:19;;;;;;;9.50;6.35;;;13.10;99.90;;;;;;1928808;74;21515;-75
2021/07/03 01:45:45;;;;;;;12.37;6.25;;;13.10;99.90;;;;;;1930162;74;21091;-75
2021/07/03 01:48:11;;;;;;;7.60;5.80;;;13.00;99.90;;;;;;1928892;74;21079;-75
2021/07/03 01:50:37;;;;;;;9.30;7.03;;;13.10;99.90;;;;;;1929007;74;21487;-74
2021/07/03 01:53:03;;;;;;;9.80;6.15;;;13.10;99.90;;;;;;1935120;74;21028;-74
2021/07/03 01:55:29;;;;;;;10.25;6.65;;;13.00;99.90;;;;;;1929530;74;21084;-74
2021/07/03 01:57:56;;;;;;;8.50;5.87;;;13.00;99.90;;;;;;1931063;74;21145;-74
2021/07/03 02:00:22;;;;;;;6.53;5.80;;;13.00;99.90;;;;;;1930424;74;21157;-73
2021/07/03 02:02:48;;;;;;;9.13;6.00;;;13.00;99.90;;;;;;1928761;74;21079;-74
2021/07/03 02:05:14;;;;;;;19.23;6.78;;;13.00;99.90;;;;;;1933132;74;21079;-74
2021/07/03 02:07:40;;;;;;;9.98;5.78;;;13.00;99.90;;;;;;1928955;74;21083;-74
2021/07/03 02:10:06;;;;;;;8.45;5.62;;;13.00;99.90;;;;;;1944806;73;21151;-74
2021/07/03 02:12:32;;;;;;;7.67;6.22;;;13.00;99.90;;;;;;1934534;73;21075;-74
2021/07/03 02:14:58;;;;;;;6.70;5.85;;;12.90;99.90;;;;;;1928903;74;21184;-74
2021/07/03 02:17:25;;;;;;;6.85;5.55;;;12.90;99.90;;;;;;1935929;74;21071;-74
2021/07/03 02:19:51;;;;;;;12.95;5.35;;;12.80;99.90;;;;;;1932266;73;21095;-74
2021/07/03 02:22:17;;;;;;;8.33;5.42;;;12.80;99.90;;;;;;1938616;73;21151;-74
2021/07/03 02:24:43;;;;;;;9.98;5.55;;;12.80;99.90;;;;;;1932174;74;21055;-74
2021/07/03 02:27:09;;;;;;;11.15;5.78;;;12.70;99.90;;;;;;1928993;74;21576;-74
2021/07/03 02:29:37;;;;;;;9.05;6.12;;;12.70;99.90;;;;;;1928272;74;21482;-74
2021/07/03 02:32:03;;;;;;;8.88;5.50;;;12.70;99.90;;;;;;1931186;74;21153;-74
2021/07/03 02:34:29;;;;;;;9.58;5.78;;;12.60;99.90;;;;;;1928812;74;21071;-74
2021/07/03 02:36:56;;;;;;;9.88;5.85;;;12.60;99.90;;;;;;1928774;74;21049;-74
2021/07/03 02:39:22;;;;;;;8.28;5.37;;;12.60;99.90;;;;;;1928774;74;21044;-74
2021/07/03 02:41:48;;;;;;;8.85;6.15;;;12.60;99.90;;;;;;1928912;74;21130;-74
2021/07/03 02:44:14;;;;;;;8.08;6.08;;;12.60;99.90;;;;;;1931009;74;21161;-74
2021/07/03 02:46:40;;;;;;;7.85;5.70;;;12.60;99.90;;;;;;1928890;74;21072;-73
2021/07/03 02:49:07;;;;;;;7.30;5.75;;;12.60;99.90;;;;;;1933748;73;21040;-74
2021/07/03 02:51:33;;;;;;;6.03;5.25;;;12.50;99.90;;;;;;1939698;73;21223;-74
2021/07/03 02:53:59;;;;;;;6.70;5.80;;;12.50;99.90;;;;;;1938279;73;21087;-74
2021/07/03 02:56:25;;;;;;;9.70;5.90;;;12.60;99.90;;;;;;1928878;74;21068;-74
2021/07/03 02:58:51;;;;;;;8.63;6.00;;;12.50;99.90;;;;;;1928968;74;21041;-74
2021/07/03 03:01:17;;;;;;;6.83;5.70;;;12.50;99.90;;;;;;1934864;73;21148;-74
2021/07/03 03:03:43;;;;;;;9.78;5.70;;;12.50;99.90;;;;;;1928785;74;21032;-74
2021/07/03 03:06:09;;;;;;;15.90;6.08;;;12.50;99.90;;;;;;1930082;74;21149;-74
2021/07/03 03:08:36;;;;;;;8.28;5.78;;;12.50;99.90;;;;;;1928690;74;21068;-74
2021/07/03 03:11:02;;;;;;;7.28;5.37;;;12.50;99.90;;;;;;1929037;74;21137;-74
2021/07/03 03:13:28;;;;;;;8.88;5.65;;;12.50;99.90;;;;;;1930272;73;21233;-74
2021/07/03 03:15:55;;;;;;;9.00;5.08;;;12.50;99.90;;;;;;1928893;74;21079;-74
2021/07/03 03:18:21;;;;;;;5.78;4.87;;;12.50;99.90;;;;;;1932408;73;21038;-74
2021/07/03 03:20:47;;;;;;;7.37;5.50;;;12.40;99.90;;;;;;1938061;73;21082;-75
2021/07/03 03:23:15;;;;;;;10.63;5.08;;;12.40;99.90;;;;;;1936605;73;21079;-74
2021/07/03 03:25:41;;;;;;;6.65;5.05;;;12.40;99.90;;;;;;1949042;73;21486;-75
2021/07/03 03:28:07;;;;;;;7.17;5.37;;;12.40;99.90;;;;;;1934870;73;21488;-74
2021/07/03 03:30:33;;;;;;;7.65;5.05;;;12.40;99.90;;;;;;1933198;73;21588;-74
2021/07/03 03:32:59;;;;;;;6.78;5.22;;;12.40;99.90;;;;;;1952114;73;21064;-74
2021/07/03 03:35:25;;;;;;;13.32;5.12;;;12.30;99.90;;;;;;1934591;73;21083;-74
2021/07/03 03:37:51;;;;;;;6.40;5.15;;;12.30;99.90;;;;;;1929936;74;21001;-74
2021/07/03 03:40:17;;;;;;;7.33;5.35;;;12.30;99.90;;;;;;1928688;74;21153;-74
2021/07/03 03:42:44;;;;;;;8.35;5.35;;;12.40;99.90;;;;;;1933444;74;21087;-74
2021/07/03 03:45:10;;;;;;;6.87;5.58;;;12.40;99.90;;;;;;1928848;74;21174;-74
2021/07/03 03:47:36;;;;;;;19.20;5.87;;;12.40;99.90;;;;;;1928655;74;21037;-74
2021/07/03 03:50:02;;;;;;;9.40;5.58;;;12.40;99.90;;;;;;1930843;74;21075;-74
2021/07/03 03:52:30;;;;;;;11.53;5.87;;;12.40;99.90;;;;;;1930792;74;21103;-74
2021/07/03 03:54:56;;;;;;;9.43;5.97;;;12.50;99.90;;;;;;1938667;73;21550;-74
2021/07/03 03:57:29;;;;;;;8.10;5.72;;;12.50;99.90;;;;;;1931759;74;21519;-74
2021/07/03 03:59:50;;;;;;;9.93;5.55;;;12.50;99.90;;;;;;1931398;73;21072;-74
2021/07/03 04:02:16;;;;;;;6.10;5.25;;;12.50;99.90;;;;;;1935932;73;21164;-74
2021/07/03 04:04:43;;;;;;;11.63;5.47;;;12.50;99.90;;;;;;1928818;74;21083;-74
2021/07/03 04:07:09;;;;;;;6.60;5.90;;;12.50;99.90;;;;;;1951462;72;21079;-74
2021/07/03 04:09:35;;;;;;;9.53;5.37;;;12.50;99.90;;;;;;1944129;73;21043;-74
2021/07/03 04:12:01;;;;;;;8.95;5.28;;;12.50;99.90;;;;;;1945224;73;21143;-74
2021/07/03 04:14:27;;;;;;;10.63;5.92;;;12.50;99.90;;;;;;1939182;73;21083;-74
2021/07/03 04:16:55;;;;;;;5.65;4.72;;;12.50;99.90;;;;;;1941807;73;21105;-74
2021/07/03 04:19:21;;;;;;;11.95;5.37;;;12.50;99.90;;;;;;1957824;72;21050;-74
2021/07/03 04:21:47;;;;;;;6.75;5.50;;;12.40;99.90;;;;;;1948494;72;21076;-74
2021/07/03 04:24:13;;;;;;;9.05;5.28;;;12.50;99.90;;;;;;1934664;73;21080;-74
2021/07/03 04:26:39;;;;;;;8.05;5.20;;;12.50;99.90;;;;;;1928838;74;21044;-74
2021/07/03 04:29:05;;;;;;;7.97;5.20;;;12.60;99.90;;;;;;1928862;74;21081;-74
2021/07/03 04:31:32;;;;;;;7.53;5.85;;;12.60;99.90;;;;;;1928972;74;21068;-74
2021/07/03 04:33:58;;;;;;;6.65;5.42;;;12.70;99.90;;;;;;1931236;74;21084;-74
2021/07/03 04:36:24;;;;;;;9.28;5.62;;;12.70;99.90;;;;;;1928366;74;21043;-74
2021/07/03 04:38:50;;;;;;;11.43;5.47;;;12.80;99.90;;;;;;1936169;73;21468;-74
2021/07/03 04:41:16;;;;;;;7.00;5.28;;;12.80;99.90;;;;;;1928705;74;21540;-74
2021/07/03 04:43:42;;;;;;;7.70;5.55;;;12.90;99.90;;;;;;1949408;72;21556;-74
2021/07/03 04:46:08;;;;;;;8.68;6.58;;;13.00;99.90;;;;;;1930756;72;21575;-74
2021/07/03 04:48:34;;;;;;;9.35;6.33;;;13.00;99.90;;;;;;1932523;73;21474;-74
2021/07/03 04:51:01;;;;;;;9.50;5.97;;;13.10;99.90;;;;;;1930635;74;21616;-74
2021/07/03 04:53:27;;;;;;;9.05;6.50;;;13.10;99.90;;;;;;1928840;74;21134;-74
2021/07/03 04:55:53;;;;;;;8.70;5.53;;;13.20;99.90;;;;;;1929018;74;21162;-74
2021/07/03 04:58:19;;;;;;;10.10;6.00;;;13.10;99.90;;;;;;1928840;74;21138;-72
2021/07/03 05:00:45;;;;;;;9.45;6.30;;;13.20;99.90;;;;;;1928838;74;21122;-73
2021/07/03 05:03:11;;;;;;;9.78;6.05;;;13.20;99.90;;;;;;1932632;74;21079;-74
2021/07/03 05:05:37;;;;;;;13.15;6.80;;;13.30;99.90;;;;;;1930844;74;21075;-72
2021/07/03 05:08:03;;;;;;;10.50;6.42;;;13.40;99.90;;;;;;1928738;74;21068;-72
2021/07/03 05:10:29;;;;;;;8.55;5.83;;;13.40;99.90;;;;;;1928663;74;21067;-72
2021/07/03 05:12:56;;;;;;;9.08;6.83;;;13.50;99.90;;;;;;1936770;73;21080;-72
2021/07/03 05:15:22;;;;;;;9.38;6.40;;;13.50;99.90;;;;;;1928848;74;21032;-72
2021/07/03 05:17:48;;;;;;;7.80;6.53;;;13.60;99.90;;;;;;1928768;74;21059;-72
2021/07/03 05:20:16;;;;;;;11.10;6.92;;;13.60;99.90;;;;;;1928639;74;21129;-73
2021/07/03 05:22:42;;;;;;;9.50;6.00;;;13.60;99.90;;;;;;1928761;74;21651;-72
2021/07/03 05:25:08;;;;;;;14.93;7.15;;;13.80;99.90;;;;;;1934289;73;21087;-74
2021/07/03 05:27:34;;;;;;;10.58;5.58;;;14.10;99.90;;;;;;1930227;73;21079;-72
2021/07/03 05:30:00;;;;;;;8.55;5.92;;;14.80;99.90;;;;;;1928926;74;21073;-72
2021/07/03 05:32:26;;;;;;;8.65;5.95;;;15.00;99.90;;;;;;1930782;74;21072;-73
2021/07/03 05:34:53;;;;;;;9.78;5.78;;;15.40;99.90;;;;;;1928931;74;21032;-74
2021/07/03 05:37:20;;;;;;;11.78;5.58;;;15.80;99.90;;;;;;1928746;74;21122;-73
2021/07/03 05:39:46;;;;;;;12.90;5.53;;;16.50;99.90;;;;;;1928881;74;21062;-75
2021/07/03 05:42:12;;;;;;;9.83;6.08;;;16.70;99.90;;;;;;1928847;74;21129;-75
2021/07/03 05:44:39;;;;;;;9.60;5.33;;;16.80;99.90;;;;;;1929957;74;21124;-76
2021/07/03 05:47:05;;;;;;;8.25;5.45;;;17.10;99.90;;;;;;1929476;74;21040;-74
2021/07/03 05:49:31;;;;;;;11.40;5.37;;;17.60;99.90;;;;;;1933180;74;21152;-74
2021/07/03 05:51:57;;;;;;;7.78;5.50;;;17.70;99.90;;;;;;1928714;74;21154;-74
2021/07/03 05:54:23;;;;;;;6.55;4.72;;;18.40;99.90;;;;;;1928694;74;21148;-74
2021/07/03 05:56:49;;;;;;;6.12;4.67;;;18.80;99.90;;;;;;1938626;73;21052;-75
2021/07/03 05:59:16;;;;;;;6.58;5.12;;;19.00;99.90;;;;;;1929184;73;21195;-74
2021/07/03 06:01:42;;;;;;;7.03;4.97;;;19.30;99.90;;;;;;1931084;74;21084;-74
2021/07/03 06:04:08;;;;;;;8.63;5.17;;;19.20;99.90;;;;;;1928801;73;21077;-74
2021/07/03 06:06:35;;;;;;;7.95;4.90;;;19.10;99.90;;;;;;1930697;74;21137;-75
2021/07/03 06:09:01;;;;;;;7.42;4.28;;;19.70;99.90;;;;;;1931126;74;21161;-74
2021/07/03 06:11:27;;;;;;;5.37;4.05;;;20.50;99.90;;;;;;1928746;74;21079;-74
2021/07/03 06:13:54;;;;;;;4.95;4.12;;;20.60;99.90;;;;;;1939232;72;21087;-74
2021/07/03 06:16:20;;;;;;;5.97;4.20;;;20.90;99.90;;;;;;1928736;74;21161;-74
2021/07/03 06:18:46;;;;;;;5.97;4.10;;;21.50;99.90;;;;;;1933299;74;21080;-74
2021/07/03 06:21:12;;;;;;;7.47;4.37;;;22.00;99.90;;;;;;1928779;74;21083;-74
2021/07/03 06:23:39;;;;;;;6.08;4.45;;;22.10;99.90;;;;;;1928906;74;21115;-74
2021/07/03 06:26:05;;;;;;;5.37;4.08;;;21.60;99.90;;;;;;1930987;74;21079;-73
2021/07/03 06:28:32;;;;;;;8.63;3.90;;;21.80;99.90;;;;;;1930341;74;21083;-73
2021/07/03 06:30:58;;;;;;;7.00;3.67;;;21.60;99.90;;;;;;1951911;73;21045;-72
2021/07/03 06:33:24;;;;;;;7.37;4.42;;;22.60;99.90;;;;;;1930117;74;21100;-73
2021/07/03 06:35:50;;;;;;;7.87;4.03;;;21.60;99.90;;;;;;1932572;74;21182;-72
2021/07/03 06:38:16;;;;;;;6.75;4.33;;;22.20;99.90;;;;;;1934905;73;21077;-73
2021/07/03 06:40:42;;;;;;;7.17;3.98;;;22.30;99.90;;;;;;1933012;74;21097;-73
2021/07/03 06:43:08;;;;;;;6.80;4.28;;;22.30;99.90;;;;;;1945949;73;21083;-73
2021/07/03 06:45:34;;;;;;;8.55;4.45;;;21.60;99.90;;;;;;1928587;74;21079;-74
2021/07/03 06:48:01;;;;;;;6.55;3.80;;;21.90;99.90;;;;;;1928822;74;21141;-74
2021/07/03 06:50:27;;;;;;;8.20;3.77;;;22.70;99.90;;;;;;1927644;73;21067;-74
2021/07/03 06:52:53;;;;;;;10.72;4.50;;;23.70;99.90;;;;;;1935342;73;21052;-73
2021/07/03 06:55:19;;;;;;;9.40;4.15;;;23.80;99.90;;;;;;1940996;73;21137;-74
2021/07/03 06:57:45;;;;;;;8.28;3.75;;;23.70;99.90;;;;;;1951456;73;21090;-74
2021/07/03 07:00:11;;;;;;;5.95;3.65;;;23.80;99.90;;;;;;1938402;73;21149;-74
2021/07/03 07:02:37;;;;;;;6.87;3.52;;;24.30;99.90;;;;;;1941822;73;21082;-74
2021/07/03 07:05:04;;;;;;;7.20;3.98;;;24.10;99.90;;;;;;1940035;73;21079;-74
2021/07/03 07:07:30;;;;;;;4.03;3.35;;;23.80;99.90;;;;;;1936625;73;21079;-74
2021/07/03 07:09:56;;;;;;;8.48;3.67;;;23.00;99.90;;;;;;1954849;73;21066;-74
2021/07/03 07:12:22;;;;;;;5.92;3.62;;;23.90;99.90;;;;;;1945220;73;21070;-75
2021/07/03 07:14:48;;;;;;;4.78;3.60;;;23.50;99.90;;;;;;1936914;73;21223;-77
2021/07/03 07:17:16;;;;;;;5.87;3.25;;;23.80;99.90;;;;;;1933265;73;21140;-75
2021/07/03 07:19:42;;;;;;;8.85;3.30;;;23.30;99.90;;;;;;1941314;72;21499;-76
2021/07/03 07:22:08;;;;;;;7.95;3.30;;;24.10;99.90;;;;;;1946430;72;21150;-77
2021/07/03 07:24:34;;;;;;;3.87;2.90;;;24.20;99.90;;;;;;1955840;73;21135;-77
2021/07/03 07:27:01;;;;;;;4.62;3.27;;;24.60;99.90;;;;;;1938396;73;21071;-76
2021/07/03 07:29:27;;;;;;;7.08;3.47;;;23.80;99.90;;;;;;1944203;73;21201;-77
2021/07/03 07:31:53;;;;;;;8.20;3.47;;;23.70;99.90;;;;;;1937090;74;21071;-76
2021/07/03 07:34:19;;;;;;;9.18;3.02;;;24.30;99.90;;;;;;1937949;73;21083;-77
2021/07/03 07:38:21;;;;;;;5.08;3.42;;;24.50;99.90;;;;;;2047453;69;28269;-74
2021/07/03 07:40:47;;;;;;;70.75;7.05;;;24.20;99.90;;;;;;2013120;70;21521;-75
2021/07/03 07:43:14;;;;;;;6.40;3.80;;;23.90;99.90;;;;;;2006848;70;21549;-74
2021/07/03 07:45:40;;;;;;;4.22;3.42;;;24.40;99.90;;;;;;1963524;72;21106;-76
2021/07/03 07:48:06;;;;;;;20.68;4.80;;;23.90;99.90;;;;;;2010968;71;21090;-75
2021/07/03 07:50:32;;;;;;;6.15;3.60;;;23.90;99.90;;;;;;2010748;71;21068;-76
2021/07/03 07:52:58;;;;;;;20.23;4.67;;;24.30;99.90;;;;;;2013236;70;21055;-75
2021/07/03 07:55:24;;;;;;;43.30;6.70;;;23.80;99.90;;;;;;1959929;72;21150;-75
2021/07/03 07:57:50;;;;;;;15.08;3.92;;;23.40;99.90;;;;;;2009395;70;21049;-74
2021/07/03 08:00:18;;;;;;;10.68;3.92;;;23.30;99.90;;;;;;1966150;72;21048;-77
2021/07/03 08:02:44;;;;;;;7.37;3.95;;;22.90;99.90;;;;;;2006963;70;21209;-76
2021/07/03 08:05:10;;;;;;;21.45;4.85;;;23.80;99.90;;;;;;2007338;70;21073;-76
2021/07/03 08:07:36;;;;;;;6.12;3.33;;;24.30;99.90;;;;;;2007139;70;21109;-74
2021/07/03 08:10:03;;;;;;;5.17;3.85;;;23.80;99.90;;;;;;2017514;70;21104;-76
2021/07/03 08:12:29;;;;;;;6.72;3.58;;;23.00;99.90;;;;;;2007675;70;21101;-76
2021/07/03 08:14:55;;;;;;;5.78;3.62;;;23.40;99.90;;;;;;1965073;72;21019;-74
2021/07/03 08:17:21;;;;;;;6.12;3.85;;;23.00;99.90;;;;;;2007110;70;21219;-70
2021/07/03 08:19:47;;;;;;;6.30;3.45;;;22.80;99.90;;;;;;2002394;70;21043;-71
2021/07/03 08:22:13;;;;;;;7.83;4.05;;;23.30;99.90;;;;;;2015400;70;21210;-70
2021/07/03 08:24:39;;;;;;;24.27;4.10;;;24.50;99.90;;;;;;2013119;71;20981;-70
2021/07/03 08:27:05;;;;;;;9.10;3.77;;;25.00;99.90;;;;;;2011050;70;21039;-72
2021/07/03 08:29:32;;;;;;;5.85;3.37;;;25.40;99.90;;;;;;2011093;71;21106;-70
2021/07/03 08:31:58;;;;;;;5.17;3.45;;;25.00;99.90;;;;;;2011231;70;21051;-70
2021/07/03 08:34:24;;;;;;;8.28;4.08;;;24.00;99.90;;;;;;2010687;70;21149;-70
2021/07/03 08:36:50;;;;;;;6.33;4.55;;;24.10;99.90;;;;;;2011018;70;21050;-70
2021/07/03 08:39:16;;;;;;;9.68;3.62;;;24.90;99.90;;;;;;2022183;70;21046;-70
2021/07/03 08:41:42;;;;;;;5.30;3.12;;;24.70;99.90;;;;;;2015947;70;21105;-71
2021/07/03 08:44:08;;;;;;;6.85;3.70;;;24.10;99.90;;;;;;2002371;70;21037;-74
2021/07/03 08:46:34;;;;;;;7.30;3.42;;;23.70;99.90;;;;;;2028703;71;21079;-73
2021/07/03 08:49:02;;;;;;;10.25;3.60;;;23.70;99.90;;;;;;2012041;70;21088;-76
2021/07/03 08:51:28;;;;;;;4.78;3.20;;;23.50;99.90;;;;;;2006810;70;21101;-74
2021/07/03 08:53:54;;;;;;;5.30;3.58;;;24.00;99.90;;;;;;1993997;70;21104;-77
2021/07/03 08:56:21;;;;;;;6.50;3.35;;;23.70;99.90;;;;;;1964055;73;21117;-75
2021/07/03 08:58:47;;;;;;;5.62;3.30;;;23.90;99.90;;;;;;1987208;70;21052;-76
2021/07/03 09:01:13;;;;;;;5.12;2.90;;;24.10;99.90;;;;;;1978067;72;21067;-75
2021/07/03 09:03:39;;;;;;;5.87;2.95;;;25.10;99.90;;;;;;1974754;72;21028;-74
2021/07/03 09:06:05;;;;;;;5.97;2.80;;;25.20;99.90;;;;;;1979460;72;21075;-76
2021/07/03 09:08:31;;;;;;;5.55;2.22;;;25.50;99.90;;;;;;1968454;72;21438;-75
2021/07/03 09:10:58;;;;;;;4.40;2.62;;;25.70;99.90;;;;;;1979000;72;21598;-75
2021/07/03 09:13:24;;;;;;;4.60;2.30;;;25.50;99.90;;;;;;1978900;72;21121;-74
2021/07/03 09:15:50;;;;;;;5.03;2.90;;;24.90;99.90;;;;;;1972205;72;21031;-75
2021/07/03 09:18:16;;;;;;;4.28;2.65;;;25.00;99.90;;;;;;1980167;72;21120;-74
2021/07/03 09:20:42;;;;;;;4.17;2.72;;;25.30;99.90;;;;;;1983387;72;21047;-74
2021/07/03 09:23:09;;;;;;;7.58;3.05;;;24.70;99.90;;;;;;1977070;72;21039;-73
2021/07/03 09:25:35;;;;;;;3.30;2.75;;;25.30;99.90;;;;;;1971043;72;21074;-74
2021/07/03 09:28:01;;;;;;;3.67;2.87;;;25.40;99.90;;;;;;1978712;72;21478;-77
2021/07/03 09:30:27;;;;;;;3.22;2.55;;;25.80;99.90;;;;;;1991221;72;21471;-74
2021/07/03 09:32:54;;;;;;;4.47;2.65;;;25.70;99.90;;;;;;1974124;72;21483;-74
2021/07/03 09:35:20;;;;;;;4.78;2.95;;;25.40;99.90;;;;;;1974194;72;21541;-77
2021/07/03 09:37:46;;;;;;;4.00;2.20;;;25.80;99.90;;;;;;1967147;72;21438;-75
2021/07/03 09:40:12;;;;;;;4.37;2.58;;;25.90;99.90;;;;;;1980727;72;21051;-73
2021/07/03 09:42:38;;;;;;;2.90;2.65;;;25.80;99.90;;;;;;1972871;72;21117;-71
2021/07/03 09:45:04;;;;;;;2.95;2.58;;;25.80;99.90;;;;;;1975616;72;21123;-74
2021/07/03 09:47:30;;;;;;;2.75;2.55;;;26.00;99.90;;;;;;1979585;72;21040;-74
2021/07/03 09:49:56;;;;;;;3.17;2.60;;;25.90;99.90;;;;;;1970479;72;21052;-74
2021/07/03 09:52:23;;;;;;;4.75;2.62;;;25.50;99.90;;;;;;1968105;72;21056;-75
2021/07/03 09:54:49;;;;;;;2.50;2.30;;;25.20;99.90;;;;;;1975185;72;21050;-74
2021/07/03 09:57:15;;;;;;;2.60;2.40;;;25.40;99.90;;;;;;1978868;72;21044;-75
2021/07/03 09:59:41;;;;;;;5.15;2.50;;;25.90;99.90;;;;;;1959953;72;21528;-75
2021/07/03 10:02:07;;;;;;;2.50;2.30;;;25.70;99.90;;;;;;1978209;72;21059;-75
2021/07/03 10:04:35;;;;;;;4.53;2.65;;;25.70;99.90;;;;;;1972415;72;21051;-75
2021/07/03 10:07:01;;;;;;;2.12;1.98;;;26.20;99.90;;;;;;1974358;73;21504;-75
2021/07/03 10:09:27;;;;;;;4.00;2.58;;;25.90;99.90;;;;;;1974503;72;21500;-76
2021/07/03 10:11:53;;;;;;;3.27;2.37;;;25.70;99.90;;;;;;1974310;73;21455;-74
2021/07/03 10:14:19;;;;;;;3.15;2.20;;;25.60;99.90;;;;;;1967617;72;21507;-74
2021/07/03 10:16:46;;;;;;;3.20;2.08;;;25.90;99.90;;;;;;1973477;72;21048;-75
2021/07/03 10:19:14;;;;;;;3.70;2.08;;;25.90;99.90;;;;;;1966200;72;21067;-75
2021/07/03 10:21:40;;;;;;;4.80;2.27;;;26.10;99.80;;;;;;1966254;72;21112;-76
2021/07/03 10:24:06;;;;;;;2.80;2.20;;;26.30;99.00;;;;;;1971655;72;21104;-75
2021/07/03 10:26:32;;;;;;;6.42;2.33;;;26.30;99.70;;;;;;1965801;72;21051;-76
2021/07/03 10:28:58;;;;;;;5.78;2.37;;;26.60;99.90;;;;;;1981683;72;21058;-75
2021/07/03 10:31:27;;;;;;;5.12;2.10;;;26.60;98.50;;;;;;1984716;72;21234;-75
2021/07/03 10:33:52;;;;;;;3.02;2.47;;;26.20;99.90;;;;;;1967264;72;21477;-76
2021/07/03 10:36:18;;;;;;;3.33;2.50;;;26.60;99.90;;;;;;1973177;72;21059;-76
2021/07/03 10:38:44;;;;;;;3.87;2.22;;;27.00;99.90;;;;;;1991383;72;21090;-75
2021/07/03 10:41:10;;;;;;;2.25;2.05;;;26.90;99.90;;;;;;1991291;72;21113;-76
2021/07/03 10:43:37;;;;;;;5.58;2.10;;;26.60;99.90;;;;;;1969191;72;21031;-76
2021/07/03 10:46:03;;;;;;;4.37;2.22;;;27.20;99.90;;;;;;1981915;72;21063;-75
2021/07/03 10:48:29;;;;;;;2.40;2.10;;;27.10;99.40;;;;;;1978156;72;21051;-82
2021/07/03 10:50:56;;;;;;;2.42;1.92;;;27.20;99.90;;;;;;1947873;72;21112;-82
2021/07/03 10:53:22;;;;;;;2.52;2.33;;;27.30;97.90;;;;;;1967203;72;21463;-82
2021/07/03 10:55:49;;;;;;;5.05;2.50;;;26.70;98.70;;;;;;1974724;72;21513;-82
2021/07/03 10:58:15;;;;;;;7.35;2.27;;;27.00;98.60;;;;;;1982002;72;21107;-82
2021/07/03 11:00:41;;;;;;;3.00;2.37;;;26.80;98.00;;;;;;1969323;72;21062;-81
2021/07/03 11:03:08;;;;;;;3.33;2.42;;;26.90;99.80;;;;;;1975167;72;21133;-82
2021/07/03 11:05:34;;;;;;;2.45;2.17;;;27.50;98.00;;;;;;1970934;72;21099;-81
2021/07/03 11:08:02;;;;;;;4.83;2.00;;;27.40;95.40;;;;;;1967295;72;21046;-81
2021/07/03 11:10:30;;;;;;;6.22;2.50;;;27.10;95.70;;;;;;1974229;73;21076;-81
2021/07/03 11:12:57;;;;;;;5.55;2.45;;;26.50;98.00;;;;;;1974199;73;21444;-82
2021/07/03 11:15:27;;;;;;;4.67;2.50;;;26.70;99.30;;;;;;1974394;73;21051;-81
2021/07/03 11:17:51;;;;;;;3.10;2.20;;;27.00;98.50;;;;;;1979161;72;21055;-82
2021/07/03 11:20:27;;;;;;;3.77;2.47;;;27.30;97.60;;;;;;1976472;72;21051;-81
2021/07/03 11:22:53;;;;;;;3.05;2.40;;;27.50;96.40;;;;;;1977583;72;21176;-81
2021/07/03 11:25:19;;;;;;;3.02;2.17;;;27.90;95.50;;;;;;1974610;73;21061;-81
2021/07/03 11:27:45;;;;;;;6.83;2.40;;;27.80;94.60;;;;;;1974416;72;21024;-81
2021/07/03 11:30:11;;;;;;;4.05;2.42;;;27.20;96.10;;;;;;1971196;72;21067;-81
2021/07/03 11:32:37;;;;;;;2.90;2.05;;;27.00;96.50;;;;;;1967283;72;21108;-81
2021/07/03 11:35:04;;;;;;;3.20;2.37;;;27.10;96.30;;;;;;1984433;72;21040;-80
2021/07/03 11:37:31;;;;;;;6.87;2.60;;;26.80;96.20;;;;;;1983274;72;21031;-81
2021/07/03 11:39:57;;;;;;;5.45;2.10;;;26.80;96.60;;;;;;1979388;72;21063;-80
2021/07/03 11:42:23;;;;;;;2.05;1.85;;;26.80;94.90;;;;;;1972718;72;21120;-80
2021/07/03 11:44:50;;;;;;;2.12;1.92;;;26.80;94.30;;;;;;1991690;72;21030;-80
2021/07/03 11:47:16;;;;;;;5.75;2.37;;;27.00;93.80;;;;;;1973756;72;21534;-81
2021/07/03 11:49:42;;;;;;;3.67;2.00;;;27.40;95.00;;;;;;1964815;72;21133;-82
2021/07/03 11:52:08;;;;;;;4.03;2.35;;;27.50;92.90;;;;;;1974347;72;21160;-80
2021/07/03 11:54:36;;;;;;;4.03;1.95;;;27.20;93.10;;;;;;1973279;72;21159;-81
2021/07/03 11:57:02;;;;;;;4.78;2.30;;;26.90;93.70;;;;;;1937404;72;21053;-81
2021/07/03 11:59:29;;;;;;;2.72;1.75;;;27.20;92.40;;;;;;1970785;72;21078;-80
2021/07/03 12:01:55;;;;;;;4.53;1.80;;;27.60;92.40;;;;;;1972528;72;21076;-81
2021/07/03 12:04:21;;;;;;;7.08;1.82;;;27.50;90.30;;;;;;1962577;72;21121;-82
2021/07/03 12:06:48;;;;;;;3.12;1.65;;;27.20;90.40;;;;;;1964122;72;21051;-81
2021/07/03 12:09:14;;;;;;;2.75;2.00;;;27.20;86.10;;;;;;1974707;72;21118;-81
2021/07/03 12:11:40;;;;;;;4.08;1.70;;;27.40;88.90;;;;;;1971522;72;21108;-81
2021/07/03 12:14:06;;;;;;;2.60;1.82;;;27.00;90.40;;;;;;1976545;72;21055;-81
2021/07/03 12:16:32;;;;;;;2.60;1.80;;;27.10;89.90;;;;;;1978352;72;21059;-82
2021/07/03 12:18:58;;;;;;;2.42;1.90;;;27.40;87.10;;;;;;1967859;72;21113;-83
2021/07/03 12:21:25;;;;;;;3.70;1.70;;;27.30;87.30;;;;;;1972125;72;21070;-81
2021/07/03 12:23:51;;;;;;;5.90;2.17;;;27.50;89.60;;;;;;1975841;72;21051;-82
2021/07/03 12:26:17;;;;;;;2.33;1.65;;;27.40;87.60;;;;;;1974006;70;21052;-82
2021/07/03 12:28:43;;;;;;;2.45;1.90;;;27.70;90.90;;;;;;1974757;72;21092;-82
2021/07/03 12:31:09;;;;;;;2.90;1.75;;;28.70;90.50;;;;;;1978962;72;21055;-81
2021/07/03 12:33:36;;;;;;;2.75;2.02;;;29.10;84.10;;;;;;1978406;71;21052;-83
2021/07/03 12:36:02;;;;;;;3.58;1.67;;;28.80;82.50;;;;;;1980923;71;21024;-82
2021/07/03 12:38:28;;;;;;;1.67;1.57;;;28.40;83.70;;;;;;1963944;70;21055;-81
2021/07/03 12:40:54;;;;;;;3.27;2.00;;;28.60;84.50;;;;;;1979832;71;21788;-81